Time;durP1;ratioP1;P1;durP2;ratioP2;P2;SDS_P1;SDS_P2;PMS_P1;PMS_P2;Temp;Humidity;BMP_temperature;BMP_pressure;BME280_temperature;BME280_humidity;BME280_pressure;Samples;Min_cycle;Max_cycle;Signal;HPM_P1;HPM_P2
2023/05/08 00:01:30;;;;;;;181.85;96.07;;;;;;;;;;5012694;28;20309;-69
2023/05/08 00:03:55;;;;;;;177.88;97.30;;;;;;;;;;5012655;28;20042;-68
2023/05/08 00:06:20;;;;;;;174.60;96.40;;;;;;;;;;5043748;28;20069;-68
2023/05/08 00:08:46;;;;;;;201.82;100.03;;;;;;;;;;5011613;28;20548;-67
2023/05/08 00:11:11;;;;;;;187.45;100.38;;;;;;;;;;5012869;28;20376;-68
2023/05/08 00:13:40;;;;;;;200.85;102.95;;;;;;;;;;5012854;28;20138;-68
2023/05/08 00:16:08;;;;;;;199.73;101.35;;;;;;;;;;5011153;28;20037;-67
2023/05/08 00:18:33;;;;;;;211.93;102.35;;;;;;;;;;5016698;28;20635;-68
2023/05/08 00:20:58;;;;;;;214.27;105.25;;;;;;;;;;5017460;28;20041;-68
2023/05/08 00:23:23;;;;;;;207.18;104.35;;;;;;;;;;5042062;28;20881;-68
2023/05/08 00:25:50;;;;;;;218.18;107.95;;;;;;;;;;5011084;28;20840;-68
2023/05/08 00:28:15;;;;;;;219.57;105.13;;;;;;;;;;5010268;28;20037;-68
2023/05/08 00:30:41;;;;;;;210.52;103.35;;;;;;;;;;5012378;28;20190;-68
2023/05/08 00:33:06;;;;;;;206.18;101.88;;;;;;;;;;5012075;28;20029;-68
2023/05/08 00:35:33;;;;;;;216.30;106.47;;;;;;;;;;5041723;28;20168;-68
2023/05/08 00:38:00;;;;;;;221.25;107.35;;;;;;;;;;5012325;28;20029;-69
2023/05/08 00:40:27;;;;;;;203.30;102.03;;;;;;;;;;5009946;28;20033;-68
2023/05/08 00:42:53;;;;;;;201.02;101.25;;;;;;;;;;5015627;28;20164;-68
2023/05/08 00:45:18;;;;;;;189.88;99.32;;;;;;;;;;5044496;28;20041;-67
2023/05/08 00:47:43;;;;;;;170.38;92.20;;;;;;;;;;5043205;28;20040;-69
2023/05/08 00:50:11;;;;;;;173.98;95.03;;;;;;;;;;5041719;28;20103;-67
2023/05/08 00:52:38;;;;;;;177.88;95.30;;;;;;;;;;5043995;28;20037;-68
2023/05/08 00:55:04;;;;;;;165.00;91.85;;;;;;;;;;5013683;28;20045;-69
2023/05/08 00:57:34;;;;;;;174.50;94.13;;;;;;;;;;5011997;28;20694;-67
2023/05/08 01:00:03;;;;;;;163.88;89.65;;;;;;;;;;5041448;28;20042;-67
2023/05/08 01:02:30;;;;;;;166.65;93.13;;;;;;;;;;5012674;28;20556;-68
2023/05/08 01:04:56;;;;;;;161.20;91.70;;;;;;;;;;5045099;28;20063;-68
2023/05/08 01:07:21;;;;;;;163.88;91.82;;;;;;;;;;5011378;28;20033;-68
2023/05/08 01:09:49;;;;;;;158.80;91.22;;;;;;;;;;4996328;28;20038;-69
2023/05/08 01:12:26;;;;;;;162.88;89.22;;;;;;;;;;4991435;28;20049;-69
2023/05/08 01:14:55;;;;;;;156.48;89.25;;;;;;;;;;4991228;28;20121;-68
2023/05/08 01:17:29;;;;;;;157.93;90.43;;;;;;;;;;5001934;28;20129;-69
2023/05/08 01:20:07;;;;;;;149.20;88.72;;;;;;;;;;4991398;28;20072;-68
2023/05/08 01:22:51;;;;;;;147.13;87.45;;;;;;;;;;5023004;28;20045;-69
2023/05/08 01:25:22;;;;;;;154.85;88.68;;;;;;;;;;5021307;28;20040;-68
2023/05/08 01:28:06;;;;;;;162.90;90.03;;;;;;;;;;5023397;28;20040;-68
2023/05/08 01:30:41;;;;;;;162.30;91.38;;;;;;;;;;5023757;28;20045;-68
2023/05/08 01:33:13;;;;;;;152.75;89.60;;;;;;;;;;5042986;28;20032;-68
2023/05/08 01:35:38;;;;;;;;;;;;;;;;;;5009339;28;20033;-68
2023/05/08 01:38:03;;;;;;;152.25;86.70;;;;;;;;;;5011523;28;19923;-69
2023/05/08 01:40:47;;;;;;;162.85;90.20;;;;;;;;;;5009573;28;20311;-67
2023/05/08 01:43:19;;;;;;;158.57;88.55;;;;;;;;;;5009543;28;20128;-68
2023/05/08 01:45:45;;;;;;;165.35;89.60;;;;;;;;;;5042175;28;20041;-69
2023/05/08 01:48:12;;;;;;;165.38;90.35;;;;;;;;;;5011375;28;20047;-68
2023/05/08 01:50:45;;;;;;;159.13;90.00;;;;;;;;;;5010798;28;20772;-69
2023/05/08 01:53:21;;;;;;;168.85;93.45;;;;;;;;;;5010960;28;20042;-68
2023/05/08 01:55:49;;;;;;;157.07;92.22;;;;;;;;;;5041767;28;20513;-69
2023/05/08 01:58:15;;;;;;;166.75;90.45;;;;;;;;;;5009701;28;20583;-68
2023/05/08 02:00:41;;;;;;;167.50;92.00;;;;;;;;;;5011742;28;20044;-68
2023/05/08 02:03:15;;;;;;;163.18;90.85;;;;;;;;;;5012511;28;20033;-69
2023/05/08 02:05:41;;;;;;;160.27;90.55;;;;;;;;;;5010886;28;20075;-69
2023/05/08 02:08:14;;;;;;;167.48;89.60;;;;;;;;;;5011974;28;20491;-69
2023/05/08 02:10:42;;;;;;;161.25;90.55;;;;;;;;;;5011041;28;20556;-69
2023/05/08 02:13:09;;;;;;;165.63;91.55;;;;;;;;;;5042914;28;20117;-68
2023/05/08 02:15:37;;;;;;;175.57;94.32;;;;;;;;;;5018529;28;22223;-68
2023/05/08 02:18:04;;;;;;;167.82;90.47;;;;;;;;;;5011176;28;20156;-68
2023/05/08 02:20:30;;;;;;;178.32;94.53;;;;;;;;;;5015094;28;20036;-69
2023/05/08 02:22:58;;;;;;;178.25;93.60;;;;;;;;;;5012294;28;20111;-69
2023/05/08 02:25:24;;;;;;;177.38;94.43;;;;;;;;;;5022686;28;20565;-70
2023/05/08 02:27:51;;;;;;;168.10;90.57;;;;;;;;;;5009429;28;20048;-68
2023/05/08 02:30:20;;;;;;;171.13;91.80;;;;;;;;;;5015896;28;20037;-69
2023/05/08 02:32:47;;;;;;;188.70;94.90;;;;;;;;;;5011980;28;20092;-68
2023/05/08 02:35:13;;;;;;;175.45;92.55;;;;;;;;;;5011565;28;20072;-70
2023/05/08 02:37:40;;;;;;;184.40;95.10;;;;;;;;;;5042125;28;20048;-67
2023/05/08 02:40:07;;;;;;;190.68;95.68;;;;;;;;;;5010510;28;20038;-67
2023/05/08 02:42:35;;;;;;;180.18;94.38;;;;;;;;;;5010985;28;20052;-68
2023/05/08 02:45:01;;;;;;;195.98;97.30;;;;;;;;;;5010417;28;20505;-69
2023/05/08 02:47:34;;;;;;;184.98;94.60;;;;;;;;;;5018888;28;20625;-68
2023/05/08 02:50:08;;;;;;;191.27;95.43;;;;;;;;;;5009699;28;20040;-69
2023/05/08 02:52:53;;;;;;;181.73;93.15;;;;;;;;;;5011741;28;20116;-69
2023/05/08 02:55:18;;;;;;;186.48;94.38;;;;;;;;;;5010414;28;20048;-69
2023/05/08 02:57:56;;;;;;;178.55;94.25;;;;;;;;;;5011142;28;20029;-69
2023/05/08 03:00:23;;;;;;;194.13;95.10;;;;;;;;;;5012102;28;20040;-69
2023/05/08 03:02:51;;;;;;;188.13;95.10;;;;;;;;;;5015947;28;20045;-67
2023/05/08 03:05:29;;;;;;;175.95;88.63;;;;;;;;;;5019259;28;20041;-68
2023/05/08 03:07:56;;;;;;;200.20;100.00;;;;;;;;;;5011035;28;20149;-68
2023/05/08 03:10:23;;;;;;;224.98;107.57;;;;;;;;;;5015259;28;20104;-68
2023/05/08 03:12:50;;;;;;;235.32;110.47;;;;;;;;;;5011103;28;20033;-68
2023/05/08 03:15:26;;;;;;;226.35;105.93;;;;;;;;;;5011015;28;20034;-69
2023/05/08 03:17:56;;;;;;;230.27;108.72;;;;;;;;;;5013893;28;20099;-68
2023/05/08 03:20:23;;;;;;;221.30;103.97;;;;;;;;;;5016595;28;20041;-69
2023/05/08 03:22:49;;;;;;;218.60;104.50;;;;;;;;;;5043145;28;20103;-68
2023/05/08 03:25:16;;;;;;;237.10;109.72;;;;;;;;;;5016714;28;20052;-68
2023/05/08 03:27:42;;;;;;;221.68;104.55;;;;;;;;;;5010787;28;20053;-67
2023/05/08 03:30:08;;;;;;;227.32;105.65;;;;;;;;;;5042843;28;20043;-69
2023/05/08 03:32:36;;;;;;;223.57;107.07;;;;;;;;;;5010149;28;20045;-68
2023/05/08 03:35:02;;;;;;;225.30;106.10;;;;;;;;;;5011165;28;20041;-68
2023/05/08 03:37:28;;;;;;;226.77;106.40;;;;;;;;;;5013687;28;20041;-69
2023/05/08 03:39:54;;;;;;;231.82;106.65;;;;;;;;;;5015366;28;20184;-68
2023/05/08 03:42:20;;;;;;;230.23;107.18;;;;;;;;;;5014806;28;20064;-68
2023/05/08 03:44:49;;;;;;;233.75;104.90;;;;;;;;;;5030001;28;22079;-69
2023/05/08 03:47:16;;;;;;;236.10;105.00;;;;;;;;;;5016853;28;20108;-68
2023/05/08 03:49:43;;;;;;;222.43;104.00;;;;;;;;;;5030032;28;20120;-68
2023/05/08 03:52:12;;;;;;;215.35;100.97;;;;;;;;;;5019690;28;20045;-69
2023/05/08 03:54:38;;;;;;;209.10;100.38;;;;;;;;;;5016288;28;22333;-67
2023/05/08 03:57:03;;;;;;;214.18;100.85;;;;;;;;;;5016385;28;20033;-68
2023/05/08 03:59:55;;;;;;;219.25;100.82;;;;;;;;;;5015228;28;20125;-69
2023/05/08 04:02:47;;;;;;;229.55;101.28;;;;;;;;;;5022767;28;20760;-68
2023/05/08 04:05:18;;;;;;;231.25;102.45;;;;;;;;;;5013440;28;20040;-67
2023/05/08 04:07:49;;;;;;;219.07;102.88;;;;;;;;;;5015943;28;20083;-68
2023/05/08 04:10:17;;;;;;;227.87;100.57;;;;;;;;;;5020108;28;20038;-69
2023/05/08 04:12:52;;;;;;;220.82;100.63;;;;;;;;;;5014159;28;20107;-68
2023/05/08 04:15:21;;;;;;;222.00;100.22;;;;;;;;;;5019066;28;20057;-70
2023/05/08 04:18:07;;;;;;;226.15;101.68;;;;;;;;;;5014241;28;20714;-69
2023/05/08 04:20:32;;;;;;;221.13;99.70;;;;;;;;;;5013968;28;20057;-68
2023/05/08 04:22:58;;;;;;;212.50;98.28;;;;;;;;;;5015261;28;20045;-68
2023/05/08 04:25:24;;;;;;;224.77;102.95;;;;;;;;;;5012837;28;20048;-68
2023/05/08 04:27:50;;;;;;;218.65;98.90;;;;;;;;;;5015020;28;20098;-67
2023/05/08 04:30:18;;;;;;;238.25;103.60;;;;;;;;;;5016747;28;20056;-68
2023/05/08 04:32:46;;;;;;;238.23;105.93;;;;;;;;;;5013187;28;20049;-68
2023/05/08 04:35:14;;;;;;;238.27;104.97;;;;;;;;;;5014867;28;20042;-68
2023/05/08 04:37:41;;;;;;;251.68;108.78;;;;;;;;;;5011648;28;20037;-68
2023/05/08 04:40:07;;;;;;;270.77;111.93;;;;;;;;;;5015152;28;20037;-67
2023/05/08 04:42:35;;;;;;;236.93;104.30;;;;;;;;;;5016401;28;20049;-69
2023/05/08 04:45:00;;;;;;;263.63;112.45;;;;;;;;;;5014650;28;20037;-68
2023/05/08 04:47:25;;;;;;;286.23;114.03;;;;;;;;;;5015292;28;20087;-69
2023/05/08 04:49:51;;;;;;;307.83;118.00;;;;;;;;;;5028866;28;20068;-68
2023/05/08 04:52:16;;;;;;;266.77;113.32;;;;;;;;;;5045396;28;20041;-68
2023/05/08 04:54:41;;;;;;;266.05;112.07;;;;;;;;;;5047748;28;20502;-67
2023/05/08 04:57:07;;;;;;;258.42;108.82;;;;;;;;;;5013271;28;20033;-69
2023/05/08 04:59:32;;;;;;;255.38;106.57;;;;;;;;;;5045177;28;20063;-68
2023/05/08 05:01:57;;;;;;;262.40;110.07;;;;;;;;;;5024327;28;20049;-68
2023/05/08 05:04:23;;;;;;;251.55;108.93;;;;;;;;;;5016313;28;20041;-68
2023/05/08 05:06:48;;;;;;;218.50;98.53;;;;;;;;;;5040885;28;20037;-68
2023/05/08 05:09:13;;;;;;;205.05;93.07;;;;;;;;;;5010209;28;20128;-67
2023/05/08 05:11:38;;;;;;;208.38;91.80;;;;;;;;;;5023286;28;20037;-68
2023/05/08 05:14:05;;;;;;;202.70;89.38;;;;;;;;;;5009938;28;20505;-69
2023/05/08 05:16:30;;;;;;;220.40;90.88;;;;;;;;;;5007725;28;20033;-67
2023/05/08 05:18:55;;;;;;;232.75;87.18;;;;;;;;;;5028400;28;20094;-67
2023/05/08 05:21:21;;;;;;;251.35;99.13;;;;;;;;;;5008596;28;20041;-67
2023/05/08 05:23:48;;;;;;;231.38;79.63;;;;;;;;;;5017886;28;20347;-68
2023/05/08 05:26:14;;;;;;;256.63;80.57;;;;;;;;;;5007866;28;20025;-68
2023/05/08 05:28:41;;;;;;;221.45;79.00;;;;;;;;;;5009832;28;20387;-68
2023/05/08 05:31:09;;;;;;;219.70;77.55;;;;;;;;;;5039602;28;20041;-69
2023/05/08 05:33:37;;;;;;;239.73;80.38;;;;;;;;;;5005907;28;20033;-68
2023/05/08 05:36:02;;;;;;;211.60;77.13;;;;;;;;;;5008219;28;20042;-69
2023/05/08 05:38:28;;;;;;;218.48;76.47;;;;;;;;;;5008317;28;20119;-69
2023/05/08 05:40:53;;;;;;;203.68;70.50;;;;;;;;;;5005811;28;20056;-70
2023/05/08 05:43:18;;;;;;;135.02;53.25;;;;;;;;;;5005315;28;20160;-69
2023/05/08 05:45:43;;;;;;;134.90;52.25;;;;;;;;;;5008122;28;20033;-70
2023/05/08 05:48:09;;;;;;;122.57;49.85;;;;;;;;;;5008450;28;20037;-71
2023/05/08 05:50:36;;;;;;;126.22;50.67;;;;;;;;;;5040626;28;20039;-69
2023/05/08 05:53:02;;;;;;;100.72;45.70;;;;;;;;;;5006575;28;20127;-68
2023/05/08 05:55:28;;;;;;;96.97;42.95;;;;;;;;;;5008027;28;20079;-69
2023/05/08 05:57:53;;;;;;;96.25;42.33;;;;;;;;;;5023633;28;20841;-68
2023/05/08 06:00:20;;;;;;;97.65;43.85;;;;;;;;;;5007098;28;20067;-68
2023/05/08 06:02:46;;;;;;;104.43;44.83;;;;;;;;;;5006962;28;20631;-70
2023/05/08 06:05:11;;;;;;;106.63;46.08;;;;;;;;;;5007082;28;20040;-69
2023/05/08 06:07:37;;;;;;;101.75;42.47;;;;;;;;;;5006999;28;20037;-69
2023/05/08 06:10:02;;;;;;;115.95;43.20;;;;;;;;;;5008003;28;20163;-68
2023/05/08 06:12:30;;;;;;;174.25;44.50;;;;;;;;;;5008007;28;20041;-69
2023/05/08 06:14:55;;;;;;;136.18;42.22;;;;;;;;;;5006329;28;20041;-67
2023/05/08 06:17:21;;;;;;;151.68;42.22;;;;;;;;;;5005350;28;20036;-67
2023/05/08 06:19:49;;;;;;;102.18;40.13;;;;;;;;;;5008372;28;20037;-67
2023/05/08 06:22:17;;;;;;;109.15;38.50;;;;;;;;;;5038649;28;20038;-68
2023/05/08 06:24:42;;;;;;;107.25;36.00;;;;;;;;;;5022208;28;20532;-68
2023/05/08 06:27:08;;;;;;;134.65;35.65;;;;;;;;;;5007268;28;20037;-69
2023/05/08 06:29:33;;;;;;;149.80;34.05;;;;;;;;;;5015323;28;21677;-70
2023/05/08 06:31:58;;;;;;;135.85;47.17;;;;;;;;;;4987840;28;20104;-69
2023/05/08 06:34:24;;;;;;;140.80;37.83;;;;;;;;;;4988989;28;20030;-68
2023/05/08 06:36:49;;;;;;;104.00;34.85;;;;;;;;;;4985641;28;20122;-69
2023/05/08 06:39:14;;;;;;;123.82;35.80;;;;;;;;;;4984086;28;20447;-67
2023/05/08 06:41:40;;;;;;;120.80;34.05;;;;;;;;;;4988462;28;20056;-68
2023/05/08 06:44:08;;;;;;;93.40;32.10;;;;;;;;;;4996330;28;20475;-69
2023/05/08 06:46:33;;;;;;;86.78;32.17;;;;;;;;;;4988352;28;20045;-68
2023/05/08 06:48:58;;;;;;;98.90;33.95;;;;;;;;;;4986806;28;20044;-69
2023/05/08 06:51:23;;;;;;;96.75;34.35;;;;;;;;;;4989685;28;20038;-68
2023/05/08 06:53:49;;;;;;;98.22;35.92;;;;;;;;;;4988294;28;20041;-70
2023/05/08 06:56:16;;;;;;;89.35;34.63;;;;;;;;;;4988416;28;20041;-70
2023/05/08 06:58:42;;;;;;;100.03;37.22;;;;;;;;;;5004135;28;20057;-69
2023/05/08 07:01:07;;;;;;;100.30;45.10;;;;;;;;;;5019620;28;20601;-69
2023/05/08 07:03:32;;;;;;;100.53;40.95;;;;;;;;;;4988133;28;20033;-69
2023/05/08 07:06:00;;;;;;;76.43;31.13;;;;;;;;;;5018350;28;20107;-69
2023/05/08 07:08:25;;;;;;;61.70;26.60;;;;;;;;;;4989045;28;20089;-73
2023/05/08 07:10:51;;;;;;;60.85;26.50;;;;;;;;;;4985313;28;20434;-70
2023/05/08 07:13:20;;;;;;;60.42;25.92;;;;;;;;;;4989226;28;20247;-70
2023/05/08 07:15:45;;;;;;;48.00;24.75;;;;;;;;;;4988205;28;20038;-69
2023/05/08 07:18:10;;;;;;;61.67;32.05;;;;;;;;;;4989357;28;20056;-69
2023/05/08 07:20:36;;;;;;;59.58;28.45;;;;;;;;;;4991801;28;20066;-69
2023/05/08 07:23:01;;;;;;;51.30;27.20;;;;;;;;;;5009053;28;20160;-70
2023/05/08 07:25:26;;;;;;;39.55;23.50;;;;;;;;;;4991806;28;20034;-69
2023/05/08 07:27:52;;;;;;;41.78;23.48;;;;;;;;;;4996277;28;20041;-68
2023/05/08 07:30:17;;;;;;;44.03;23.45;;;;;;;;;;4990661;28;20041;-69
2023/05/08 07:32:42;;;;;;;39.45;25.08;;;;;;;;;;5023527;28;20030;-69
2023/05/08 07:35:10;;;;;;;48.60;27.25;;;;;;;;;;4993967;28;20068;-70
2023/05/08 07:37:35;;;;;;;43.83;25.45;;;;;;;;;;4989463;28;20081;-69
2023/05/08 07:40:00;;;;;;;48.15;27.95;;;;;;;;;;4992747;28;20121;-68
2023/05/08 07:42:26;;;;;;;42.10;25.00;;;;;;;;;;4989915;28;20129;-71
2023/05/08 07:44:51;;;;;;;47.80;27.80;;;;;;;;;;5022248;28;20045;-69
2023/05/08 07:47:17;;;;;;;53.35;27.98;;;;;;;;;;4990249;28;20042;-69
2023/05/08 07:49:42;;;;;;;58.80;30.65;;;;;;;;;;4991310;28;20060;-70
2023/05/08 07:52:07;;;;;;;61.03;30.83;;;;;;;;;;4990008;28;21053;-69
2023/05/08 07:54:32;;;;;;;69.95;32.22;;;;;;;;;;4992465;28;20167;-69
2023/05/08 07:56:58;;;;;;;69.93;31.33;;;;;;;;;;4990867;28;20042;-68
2023/05/08 07:59:23;;;;;;;70.72;31.52;;;;;;;;;;5022677;28;20046;-70
2023/05/08 08:01:48;;;;;;;74.38;32.92;;;;;;;;;;4992882;28;20903;-69
2023/05/08 08:04:13;;;;;;;73.40;31.13;;;;;;;;;;4991016;28;20045;-69
2023/05/08 08:06:39;;;;;;;69.55;29.52;;;;;;;;;;5023020;28;20064;-70
2023/05/08 08:09:04;;;;;;;63.60;28.00;;;;;;;;;;5003288;28;20044;-71
2023/05/08 08:11:29;;;;;;;62.00;27.67;;;;;;;;;;4991380;28;21123;-69
2023/05/08 08:13:55;;;;;;;59.90;25.83;;;;;;;;;;4990311;28;20116;-69
2023/05/08 08:16:20;;;;;;;53.40;24.08;;;;;;;;;;5006414;28;20034;-69
2023/05/08 08:18:45;;;;;;;54.92;23.20;;;;;;;;;;5009449;28;20975;-69
2023/05/08 08:21:12;;;;;;;64.53;25.48;;;;;;;;;;5010548;28;20049;-69
2023/05/08 08:23:38;;;;;;;60.03;24.88;;;;;;;;;;5007836;28;20037;-68
2023/05/08 08:26:03;;;;;;;64.85;24.58;;;;;;;;;;5009556;28;20104;-69
2023/05/08 08:28:28;;;;;;;55.47;22.17;;;;;;;;;;5038703;28;20045;-68
2023/05/08 08:30:54;;;;;;;63.22;23.73;;;;;;;;;;5008126;28;20040;-70
2023/05/08 08:33:23;;;;;;;68.43;24.13;;;;;;;;;;5015884;28;20067;-68
2023/05/08 08:35:49;;;;;;;58.05;22.95;;;;;;;;;;5010266;28;20030;-68
2023/05/08 08:38:15;;;;;;;51.45;20.73;;;;;;;;;;5008374;28;20044;-70
2023/05/08 08:40:41;;;;;;;52.47;19.98;;;;;;;;;;5008825;28;20038;-69
2023/05/08 08:43:06;;;;;;;53.58;20.55;;;;;;;;;;5008244;28;20053;-70
2023/05/08 08:45:31;;;;;;;53.63;20.38;;;;;;;;;;5040868;28;22322;-70
2023/05/08 08:47:58;;;;;;;47.90;19.80;;;;;;;;;;5022377;28;20120;-70
2023/05/08 08:50:25;;;;;;;52.83;18.77;;;;;;;;;;5004526;28;20041;-70
2023/05/08 08:52:56;;;;;;;49.45;19.42;;;;;;;;;;4990524;28;20045;-69
2023/05/08 08:55:25;;;;;;;48.30;18.80;;;;;;;;;;4990060;28;20998;-69
2023/05/08 08:57:50;;;;;;;47.72;18.65;;;;;;;;;;5019964;28;20033;-70
2023/05/08 09:00:18;;;;;;;47.95;18.17;;;;;;;;;;4989526;28;20041;-70
2023/05/08 09:02:44;;;;;;;50.05;17.85;;;;;;;;;;4989404;28;20046;-73
2023/05/08 09:05:10;;;;;;;46.55;18.20;;;;;;;;;;4989519;28;20038;-71
2023/05/08 09:07:36;;;;;;;47.17;18.35;;;;;;;;;;4992820;28;20046;-70
2023/05/08 09:10:04;;;;;;;49.50;18.75;;;;;;;;;;4989869;28;20038;-70
2023/05/08 09:12:32;;;;;;;57.75;18.90;;;;;;;;;;4991154;28;22308;-73
2023/05/08 09:14:57;;;;;;;46.60;20.48;;;;;;;;;;4990592;28;20033;-71
2023/05/08 09:17:25;;;;;;;47.20;20.98;;;;;;;;;;4989157;28;20026;-70
2023/05/08 09:19:53;;;;;;;48.05;22.05;;;;;;;;;;4989228;28;20121;-70
2023/05/08 09:22:20;;;;;;;47.00;21.15;;;;;;;;;;4990252;28;20046;-70
2023/05/08 09:24:55;;;;;;;37.70;19.15;;;;;;;;;;4988086;28;20029;-72
2023/05/08 09:27:23;;;;;;;40.25;19.00;;;;;;;;;;4990569;28;20042;-71
2023/05/08 09:29:57;;;;;;;40.25;15.85;;;;;;;;;;5022636;28;20092;-71
2023/05/08 09:32:23;;;;;;;30.40;14.93;;;;;;;;;;4987705;28;20034;-71
2023/05/08 09:34:51;;;;;;;33.58;14.65;;;;;;;;;;4992873;28;20092;-72
2023/05/08 09:37:16;;;;;;;27.48;13.93;;;;;;;;;;4991231;28;20037;-70
2023/05/08 09:39:42;;;;;;;27.23;13.45;;;;;;;;;;4991432;28;22126;-71
2023/05/08 09:42:10;;;;;;;23.63;11.98;;;;;;;;;;4993111;28;20100;-74
2023/05/08 09:44:48;;;;;;;19.33;10.27;;;;;;;;;;4991698;28;20030;-73
2023/05/08 09:47:23;;;;;;;18.85;9.95;;;;;;;;;;4980288;28;20047;-71
2023/05/08 09:49:55;;;;;;;16.63;9.15;;;;;;;;;;4988752;28;20045;-70
2023/05/08 09:52:20;;;;;;;17.80;9.52;;;;;;;;;;4988242;28;20038;-70
2023/05/08 09:54:46;;;;;;;25.70;9.73;;;;;;;;;;5005345;28;20040;-70
2023/05/08 09:57:12;;;;;;;18.77;9.80;;;;;;;;;;5017190;28;20115;-73
2023/05/08 09:59:38;;;;;;;52.53;11.98;;;;;;;;;;5002934;28;20042;-71
2023/05/08 10:02:09;;;;;;;22.98;9.25;;;;;;;;;;4987265;28;20054;-72
2023/05/08 10:04:35;;;;;;;28.10;10.23;;;;;;;;;;4990507;28;20503;-72
2023/05/08 10:07:00;;;;;;;15.73;8.40;;;;;;;;;;4983310;28;20038;-72
2023/05/08 10:09:26;;;;;;;20.63;8.60;;;;;;;;;;4989338;28;20824;-76
2023/05/08 10:11:52;;;;;;;16.27;7.57;;;;;;;;;;4987126;28;20054;-72
2023/05/08 10:14:18;;;;;;;24.13;9.57;;;;;;;;;;4990434;28;20048;-73
2023/05/08 10:16:47;;;;;;;19.23;9.65;;;;;;;;;;4990862;28;20077;-70
2023/05/08 10:19:17;;;;;;;68.57;12.30;;;;;;;;;;4990158;28;20546;-73
2023/05/08 10:21:46;;;;;;;21.23;10.35;;;;;;;;;;4992187;28;20041;-71
2023/05/08 10:24:15;;;;;;;395.25;32.42;;;;;;;;;;5020129;28;20052;-72
2023/05/08 10:26:42;;;;;;;26.35;13.02;;;;;;;;;;4987760;28;20046;-73
2023/05/08 10:29:11;;;;;;;27.55;11.50;;;;;;;;;;5019237;28;20042;-72
2023/05/08 10:31:39;;;;;;;24.95;11.00;;;;;;;;;;4994401;28;20605;-73
2023/05/08 10:34:05;;;;;;;19.85;10.57;;;;;;;;;;4994559;28;22229;-71
2023/05/08 10:36:34;;;;;;;25.60;10.82;;;;;;;;;;4992136;28;20053;-70
2023/05/08 10:39:01;;;;;;;33.95;12.55;;;;;;;;;;4992885;28;20048;-72
2023/05/08 10:41:27;;;;;;;32.65;13.93;;;;;;;;;;4993911;28;20545;-70
2023/05/08 10:43:55;;;;;;;39.20;15.45;;;;;;;;;;4988824;28;20076;-72
2023/05/08 10:46:37;;;;;;;37.83;14.88;;;;;;;;;;4985586;28;20034;-72
2023/05/08 10:49:06;;;;;;;33.55;14.52;;;;;;;;;;4991233;28;20042;-74
2023/05/08 10:51:37;;;;;;;42.35;15.82;;;;;;;;;;4984562;28;20420;-74
2023/05/08 10:54:08;;;;;;;31.53;15.33;;;;;;;;;;4985011;28;20387;-72
2023/05/08 10:56:39;;;;;;;28.50;13.40;;;;;;;;;;5017289;28;20145;-72
2023/05/08 10:59:04;;;;;;;17.17;9.57;;;;;;;;;;4983225;28;20038;-72
2023/05/08 11:01:29;;;;;;;21.23;9.90;;;;;;;;;;4986004;28;20045;-72
2023/05/08 11:03:55;;;;;;;24.30;11.20;;;;;;;;;;4987004;28;20064;-71
2023/05/08 11:06:41;;;;;;;20.63;11.63;;;;;;;;;;4986899;28;20037;-72
2023/05/08 11:09:06;;;;;;;26.60;13.90;;;;;;;;;;4989506;28;20030;-72
2023/05/08 11:11:37;;;;;;;29.80;15.50;;;;;;;;;;4986665;28;20107;-71
2023/05/08 11:14:08;;;;;;;27.70;14.77;;;;;;;;;;5005803;28;20095;-71
2023/05/08 11:16:51;;;;;;;33.60;14.95;;;;;;;;;;5005779;28;20087;-73
2023/05/08 11:19:18;;;;;;;29.25;15.38;;;;;;;;;;4984578;28;20144;-75
2023/05/08 11:22:01;;;;;;;34.17;16.40;;;;;;;;;;4981435;28;20111;-72
2023/05/08 11:24:33;;;;;;;46.33;16.10;;;;;;;;;;5020106;28;20030;-70
2023/05/08 11:27:01;;;;;;;34.35;17.60;;;;;;;;;;4984183;28;20040;-72
2023/05/08 11:29:26;;;;;;;33.22;16.02;;;;;;;;;;5014431;28;20049;-72
2023/05/08 11:31:52;;;;;;;29.88;16.67;;;;;;;;;;4983525;28;20149;-72
2023/05/08 11:34:41;;;;;;;31.48;15.55;;;;;;;;;;4984586;28;20530;-72
2023/05/08 11:37:11;;;;;;;28.83;15.68;;;;;;;;;;4974578;28;20050;-74
2023/05/08 11:39:36;;;;;;;29.73;15.93;;;;;;;;;;4972476;28;20109;-74
2023/05/08 11:42:20;;;;;;;28.77;14.40;;;;;;;;;;4965584;28;20042;-72
2023/05/08 11:44:45;;;;;;;31.92;15.30;;;;;;;;;;4981025;28;20034;-73
2023/05/08 11:47:17;;;;;;;21.42;13.63;;;;;;;;;;4984459;28;20056;-73
2023/05/08 11:49:44;;;;;;;29.15;14.93;;;;;;;;;;4970900;28;20054;-72
2023/05/08 11:52:17;;;;;;;33.90;15.02;;;;;;;;;;4983209;28;20053;-73
2023/05/08 11:54:42;;;;;;;65.93;17.60;;;;;;;;;;5014967;28;20125;-71
2023/05/08 11:57:07;;;;;;;34.58;15.00;;;;;;;;;;5013726;28;20497;-73
2023/05/08 11:59:36;;;;;;;25.42;15.13;;;;;;;;;;4988442;28;21147;-74
2023/05/08 12:02:04;;;;;;;23.60;14.00;;;;;;;;;;4965578;28;20457;-74
2023/05/08 12:04:29;;;;;;;23.10;13.95;;;;;;;;;;4965824;28;20157;-73
2023/05/08 12:06:57;;;;;;;20.35;13.55;;;;;;;;;;4967369;28;20034;-73
2023/05/08 12:09:23;;;;;;;21.63;14.43;;;;;;;;;;4964034;28;20054;-72
2023/05/08 12:11:54;;;;;;;20.58;13.32;;;;;;;;;;4976733;28;20056;-73
2023/05/08 12:14:21;;;;;;;20.50;12.85;;;;;;;;;;4985172;28;20033;-73
2023/05/08 12:16:47;;;;;;;19.55;13.05;;;;;;;;;;4981940;28;20457;-71
2023/05/08 12:19:12;;;;;;;21.95;13.85;;;;;;;;;;4985264;28;20528;-74
2023/05/08 12:21:38;;;;;;;19.25;12.38;;;;;;;;;;4987979;28;20053;-73
2023/05/08 12:24:09;;;;;;;22.27;14.15;;;;;;;;;;4987062;28;20038;-74
2023/05/08 12:26:36;;;;;;;21.40;12.30;;;;;;;;;;4984562;28;20034;-74
2023/05/08 12:29:03;;;;;;;52.65;13.88;;;;;;;;;;5013967;28;20044;-70
2023/05/08 12:31:29;;;;;;;38.78;14.63;;;;;;;;;;5006374;28;20037;-73
2023/05/08 12:33:54;;;;;;;42.17;14.70;;;;;;;;;;5004463;28;20026;-72
2023/05/08 12:36:20;;;;;;;37.70;14.77;;;;;;;;;;5005016;28;20072;-73
2023/05/08 12:38:45;;;;;;;28.45;15.23;;;;;;;;;;5003226;28;20399;-75
2023/05/08 12:41:11;;;;;;;50.05;16.20;;;;;;;;;;5034575;28;20103;-73
2023/05/08 12:43:36;;;;;;;34.17;15.55;;;;;;;;;;5005590;28;20569;-73
2023/05/08 12:46:05;;;;;;;34.10;16.80;;;;;;;;;;5022639;28;20044;-74
2023/05/08 12:48:30;;;;;;;48.13;18.80;;;;;;;;;;5009783;28;20069;-73
2023/05/08 12:51:00;;;;;;;41.40;17.40;;;;;;;;;;5008645;28;20072;-73
2023/05/08 12:53:28;;;;;;;64.00;19.42;;;;;;;;;;5008850;28;20453;-74
2023/05/08 12:55:54;;;;;;;33.45;18.48;;;;;;;;;;5003803;28;20033;-73
2023/05/08 12:58:25;;;;;;;38.03;19.25;;;;;;;;;;5009205;28;20029;-74
2023/05/08 13:00:54;;;;;;;36.50;19.30;;;;;;;;;;5007769;28;20498;-73
2023/05/08 13:03:23;;;;;;;35.45;18.48;;;;;;;;;;5039330;28;20098;-73
2023/05/08 13:05:48;;;;;;;37.58;19.13;;;;;;;;;;5008538;28;20163;-72
2023/05/08 13:08:13;;;;;;;42.03;21.23;;;;;;;;;;5008172;28;20029;-71
2023/05/08 13:10:48;;;;;;;37.70;20.98;;;;;;;;;;5007519;28;20057;-71
2023/05/08 13:13:16;;;;;;;41.40;21.13;;;;;;;;;;5007077;28;20056;-71
2023/05/08 13:15:42;;;;;;;38.90;21.58;;;;;;;;;;5007518;28;20045;-70
2023/05/08 13:18:07;;;;;;;45.85;22.50;;;;;;;;;;5007690;28;20052;-70
2023/05/08 13:20:33;;;;;;;41.95;22.95;;;;;;;;;;5009764;28;20616;-69
2023/05/08 13:23:01;;;;;;;50.47;23.90;;;;;;;;;;5008903;28;20140;-70
2023/05/08 13:25:26;;;;;;;46.80;23.48;;;;;;;;;;5015189;28;20151;-70
2023/05/08 13:27:52;;;;;;;46.47;23.80;;;;;;;;;;5009317;28;20038;-71
2023/05/08 13:30:17;;;;;;;52.72;26.38;;;;;;;;;;5007843;28;20045;-70
2023/05/08 13:32:45;;;;;;;54.35;27.98;;;;;;;;;;5007685;28;20497;-71
2023/05/08 13:35:10;;;;;;;58.08;27.23;;;;;;;;;;5022199;28;20374;-71
2023/05/08 13:37:36;;;;;;;60.72;27.65;;;;;;;;;;5007389;28;20068;-71
2023/05/08 13:40:01;;;;;;;59.33;29.92;;;;;;;;;;5036203;28;20359;-71
2023/05/08 13:42:26;;;;;;;62.78;29.52;;;;;;;;;;5008317;28;20091;-70
2023/05/08 13:44:54;;;;;;;70.28;30.88;;;;;;;;;;5004989;28;20219;-71
2023/05/08 13:47:19;;;;;;;65.93;30.50;;;;;;;;;;5037178;28;20041;-72
2023/05/08 13:49:45;;;;;;;73.05;32.15;;;;;;;;;;5006539;28;20130;-70
2023/05/08 13:52:11;;;;;;;72.07;32.92;;;;;;;;;;5006983;28;20029;-70
2023/05/08 13:54:36;;;;;;;73.32;32.58;;;;;;;;;;4994244;28;20040;-69
2023/05/08 13:57:01;;;;;;;79.35;34.80;;;;;;;;;;5019544;28;20077;-70
2023/05/08 13:59:27;;;;;;;79.13;33.70;;;;;;;;;;4986664;28;20061;-70
2023/05/08 14:01:52;;;;;;;81.95;35.85;;;;;;;;;;4986564;28;20049;-70
2023/05/08 14:04:18;;;;;;;85.18;36.75;;;;;;;;;;5038534;28;21344;-72
2023/05/08 14:06:43;;;;;;;75.85;35.42;;;;;;;;;;5025879;28;20037;-71
2023/05/08 14:09:08;;;;;;;83.55;37.40;;;;;;;;;;5019561;28;20045;-70
2023/05/08 14:11:34;;;;;;;66.82;32.90;;;;;;;;;;5017853;28;20026;-69